createdAt,value
2022-08-03T00:01:18.950Z,95189.09
2022-08-03T00:03:45.371Z,95191.00
2022-08-03T00:06:11.754Z,95188.16
2022-08-03T00:08:40.325Z,95188.63
2022-08-03T00:11:06.756Z,95190.81
2022-08-03T00:13:33.103Z,95197.19
2022-08-03T00:15:59.454Z,95182.47
2022-08-03T00:18:25.813Z,95190.25
2022-08-03T00:20:52.165Z,95194.25
2022-08-03T00:23:18.509Z,95189.38
2022-08-03T00:25:44.858Z,95195.88
2022-08-03T00:28:11.202Z,95186.88
2022-08-03T00:30:37.547Z,95185.66
2022-08-03T00:33:03.919Z,95182.19
2022-08-03T00:35:36.717Z,95187.66
2022-08-03T00:38:03.595Z,95190.00
2022-08-03T00:40:29.948Z,95194.16
2022-08-03T00:42:56.347Z,95188.88
2022-08-03T00:45:22.714Z,95185.31
2022-08-03T00:47:49.135Z,95188.34
2022-08-03T00:50:15.515Z,95181.63
2022-08-03T00:52:41.857Z,95177.13
2022-08-03T00:55:08.216Z,95183.84
2022-08-03T00:57:34.575Z,95181.13
2022-08-03T01:00:00.938Z,95183.31
2022-08-03T01:02:27.303Z,95183.84
2022-08-03T01:04:53.662Z,95186.75
2022-08-03T01:07:20.014Z,95187.75
2022-08-03T01:09:46.384Z,95179.19
2022-08-03T01:12:12.734Z,95180.78
2022-08-03T01:14:39.096Z,95180.28
2022-08-03T01:17:05.452Z,95179.94
2022-08-03T01:19:31.797Z,95179.31
2022-08-03T01:21:58.152Z,95178.91
2022-08-03T01:24:24.931Z,95179.97
2022-08-03T01:26:51.286Z,95184.31
2022-08-03T01:29:17.639Z,95174.44
2022-08-03T01:32:58.899Z,95178.16
2022-08-03T01:34:30.937Z,95177.25
2022-08-03T01:36:57.287Z,95172.75
2022-08-03T01:39:23.641Z,95176.72
2022-08-03T01:41:50.000Z,95178.00
2022-08-03T01:44:29.001Z,95171.28
2022-08-03T01:46:57.048Z,95178.00
2022-08-03T01:49:23.484Z,95182.53
2022-08-03T01:51:57.907Z,95173.88
2022-08-03T01:54:31.130Z,95167.13
2022-08-03T01:56:57.486Z,95169.16
2022-08-03T01:59:23.842Z,95176.72
2022-08-03T02:02:27.639Z,95170.03
2022-08-03T02:04:36.547Z,95170.75
2022-08-03T02:07:03.433Z,95169.72
2022-08-03T02:09:29.929Z,95163.69
2022-08-03T02:11:56.280Z,95172.38
2022-08-03T02:14:22.628Z,95176.88
2022-08-03T02:16:48.996Z,95174.13
2022-08-03T02:19:15.589Z,95172.91
2022-08-03T02:21:57.250Z,95177.44
2022-08-03T02:24:27.497Z,95180.56
2022-08-03T02:26:53.850Z,95179.84
2022-08-03T02:29:20.202Z,95176.00
2022-08-03T02:32:05.227Z,95173.09
2022-08-03T02:34:31.582Z,95183.28
2022-08-03T02:36:57.928Z,95176.56
2022-08-03T02:39:24.277Z,95176.94
2022-08-03T02:41:50.618Z,95172.94
2022-08-03T02:44:17.336Z,95173.53
2022-08-03T02:46:43.681Z,95166.28
2022-08-03T02:49:40.462Z,95166.41
2022-08-03T02:51:56.383Z,95169.00
2022-08-03T02:54:22.756Z,95168.81
2022-08-03T02:56:49.110Z,95171.19
2022-08-03T02:59:15.462Z,95165.75
2022-08-03T03:01:41.814Z,95169.91
2022-08-03T03:04:08.171Z,95174.09
2022-08-03T03:06:35.357Z,95173.91
2022-08-03T03:09:02.212Z,95171.38
2022-08-03T03:11:28.574Z,95172.84
2022-08-03T03:13:54.929Z,95174.63
2022-08-03T03:16:21.288Z,95171.22
2022-08-03T03:18:47.632Z,95172.84
2022-08-03T03:21:13.991Z,95172.47
2022-08-03T03:23:40.336Z,95175.75
2022-08-03T03:26:06.697Z,95175.00
2022-08-03T03:28:33.057Z,95177.38
2022-08-03T03:30:59.421Z,95176.81
2022-08-03T03:33:28.236Z,95180.09
2022-08-03T03:35:54.924Z,95188.09
2022-08-03T03:38:21.273Z,95177.75
2022-08-03T03:40:47.627Z,95187.34
2022-08-03T03:43:13.977Z,95181.91
2022-08-03T03:45:40.329Z,95180.25
2022-08-03T03:48:06.688Z,95190.41
2022-08-03T03:50:33.028Z,95192.25
2022-08-03T03:52:59.384Z,95190.03
2022-08-03T03:55:25.732Z,95186.22
2022-08-03T03:57:52.116Z,95187.44
2022-08-03T04:00:18.482Z,95188.56
2022-08-03T04:02:44.835Z,95192.31
2022-08-03T04:05:11.194Z,95189.41
2022-08-03T04:07:37.547Z,95186.31
2022-08-03T04:10:14.263Z,95190.31
2022-08-03T04:12:50.332Z,95181.97
2022-08-03T04:15:17.004Z,95182.81
2022-08-03T04:17:43.372Z,95192.88
2022-08-03T04:20:09.728Z,95190.31
2022-08-03T04:22:36.100Z,95188.88
2022-08-03T04:25:02.462Z,95182.41
2022-08-03T04:27:28.821Z,95189.31
2022-08-03T04:29:55.171Z,95190.03
2022-08-03T04:32:21.518Z,95193.03
2022-08-03T04:34:47.866Z,95196.06
2022-08-03T04:37:14.223Z,95195.84
2022-08-03T04:39:40.567Z,95193.13
2022-08-03T04:42:08.565Z,95199.44
2022-08-03T04:44:35.251Z,95188.53
2022-08-03T04:47:01.601Z,95197.97
2022-08-03T04:49:28.021Z,95200.63
2022-08-03T04:51:54.387Z,95194.59
2022-08-03T04:54:20.732Z,95191.94
2022-08-03T04:56:47.081Z,95200.44
2022-08-03T04:59:13.431Z,95208.63
2022-08-03T05:01:39.872Z,95205.84
2022-08-03T05:04:06.257Z,95210.41
2022-08-03T05:06:32.611Z,95208.19
2022-08-03T05:08:59.632Z,95203.34
2022-08-03T05:11:25.985Z,95206.19
2022-08-03T05:13:52.345Z,95204.50
2022-08-03T05:16:18.702Z,95214.31
2022-08-03T05:18:45.058Z,95217.16
2022-08-03T05:21:11.424Z,95218.38
2022-08-03T05:23:37.774Z,95219.41
2022-08-03T05:26:04.135Z,95226.97
2022-08-03T05:28:30.503Z,95223.56
2022-08-03T05:30:56.858Z,95224.56
2022-08-03T05:33:23.219Z,95219.28
2022-08-03T05:35:55.908Z,95228.88
2022-08-03T05:38:34.023Z,95221.84
2022-08-03T05:41:23.708Z,95227.50
2022-08-03T05:43:48.108Z,95226.19
2022-08-03T05:46:14.463Z,95222.84
2022-08-03T05:48:40.810Z,95220.44
2022-08-03T05:51:07.184Z,95227.50
2022-08-03T05:53:33.537Z,95233.28
2022-08-03T05:56:02.691Z,95231.19
2022-08-03T05:58:41.167Z,95231.13
2022-08-03T06:01:07.574Z,95233.47
2022-08-03T06:03:33.958Z,95223.47
2022-08-03T06:06:00.744Z,95231.13
2022-08-03T06:08:27.259Z,95224.94
2022-08-03T06:10:53.620Z,95230.94
2022-08-03T06:13:20.002Z,95229.34
2022-08-03T06:15:46.358Z,95229.91
2022-08-03T06:18:12.714Z,95228.63
2022-08-03T06:20:39.164Z,95230.81
2022-08-03T06:23:06.381Z,95230.34
2022-08-03T06:25:33.862Z,95230.00
2022-08-03T06:28:00.234Z,95227.47
2022-08-03T06:30:26.657Z,95233.28
2022-08-03T06:32:53.110Z,95234.41
2022-08-03T06:35:19.469Z,95233.69
2022-08-03T06:37:45.831Z,95238.09
2022-08-03T06:40:13.932Z,95243.81
2022-08-03T06:42:40.443Z,95250.22
2022-08-03T06:45:06.796Z,95246.06
2022-08-03T06:47:33.149Z,95253.00
2022-08-03T06:50:12.680Z,95244.53
2022-08-03T06:52:43.066Z,95253.78
2022-08-03T06:55:09.423Z,95260.91
2022-08-03T06:57:35.791Z,95260.94
2022-08-03T07:00:07.591Z,95261.63
2022-08-03T07:02:37.541Z,95262.03
2022-08-03T07:05:04.222Z,95268.19
2022-08-03T07:07:30.564Z,95267.81
2022-08-03T07:09:58.334Z,95268.19
2022-08-03T07:12:24.829Z,95269.13
2022-08-03T07:14:51.202Z,95272.16
2022-08-03T07:17:17.559Z,95268.50
2022-08-03T07:19:43.911Z,95275.06
2022-08-03T07:22:10.304Z,95285.34
2022-08-03T07:24:36.656Z,95281.88
2022-08-03T07:27:03.024Z,95282.06
2022-08-03T07:29:29.386Z,95282.75
2022-08-03T07:32:01.106Z,95286.41
2022-08-03T07:34:27.467Z,95284.97
2022-08-03T07:36:53.817Z,95283.03
2022-08-03T07:39:20.184Z,95284.56
2022-08-03T07:41:46.549Z,95274.09
2022-08-03T07:44:12.896Z,95286.78
2022-08-03T07:46:39.258Z,95287.19
2022-08-03T07:49:05.728Z,95283.72
2022-08-03T07:51:32.148Z,95284.06
2022-08-03T07:53:58.510Z,95282.34
2022-08-03T07:56:24.875Z,95282.63
2022-08-03T07:58:51.247Z,95281.63
2022-08-03T08:01:17.675Z,95282.63
2022-08-03T08:03:52.324Z,95286.00
2022-08-03T08:06:18.894Z,95282.06
2022-08-03T08:08:45.261Z,95281.72
2022-08-03T08:11:11.606Z,95273.16
2022-08-03T08:13:37.969Z,95270.53
2022-08-03T08:16:04.321Z,95279.31
2022-08-03T08:18:30.675Z,95284.41
2022-08-03T08:20:57.033Z,95269.00
2022-08-03T08:23:42.746Z,95271.31
2022-08-03T08:26:09.978Z,95276.38
2022-08-03T08:28:36.347Z,95275.69
2022-08-03T08:31:02.693Z,95278.00
2022-08-03T08:33:37.629Z,95274.00
2022-08-03T08:36:15.470Z,95273.16
2022-08-03T08:38:42.088Z,95276.38
2022-08-03T08:41:08.452Z,95273.97
2022-08-03T08:43:34.815Z,95270.75
2022-08-03T08:46:01.166Z,95270.31
2022-08-03T08:48:27.515Z,95264.63
2022-08-03T08:50:53.879Z,95266.81
2022-08-03T08:53:26.765Z,95270.50
2022-08-03T08:55:58.748Z,95267.97
2022-08-03T08:58:26.233Z,95270.09
2022-08-03T09:00:52.645Z,95267.88
2022-08-03T09:03:25.230Z,95270.03
2022-08-03T09:05:56.949Z,95267.13
2022-08-03T09:08:23.409Z,95277.31
2022-08-03T09:10:49.770Z,95270.38
2022-08-03T09:13:16.153Z,95269.25
2022-08-03T09:15:42.528Z,95272.88
2022-08-03T09:18:26.954Z,95276.31
2022-08-03T09:20:56.949Z,95270.50
2022-08-03T09:23:59.448Z,95274.72
2022-08-03T09:26:09.680Z,95278.28
2022-08-03T09:29:00.868Z,95277.81
2022-08-03T09:31:22.352Z,95276.00
2022-08-03T09:33:48.719Z,95272.03
2022-08-03T09:36:15.071Z,95272.38
2022-08-03T09:38:41.426Z,95268.13
2022-08-03T09:41:07.829Z,95276.88
2022-08-03T09:43:34.198Z,95270.94
2022-08-03T09:46:00.609Z,95274.59
2022-08-03T09:48:26.987Z,95275.81
2022-08-03T09:50:57.162Z,95268.44
2022-08-03T09:53:25.199Z,95266.28
2022-08-03T09:56:33.292Z,95263.06
2022-08-03T09:58:37.891Z,95258.69
2022-08-03T10:01:04.330Z,95258.91
2022-08-03T10:03:31.726Z,95261.81
2022-08-03T10:06:00.001Z,95254.88
2022-08-03T10:08:26.454Z,95256.91
2022-08-03T10:10:52.814Z,95260.69
2022-08-03T10:13:19.154Z,95253.28
2022-08-03T10:16:21.601Z,95248.50
2022-08-03T10:18:31.846Z,95241.63
2022-08-03T10:20:58.216Z,95253.44
2022-08-03T10:23:24.604Z,95247.28
2022-08-03T10:25:50.978Z,95242.31
2022-08-03T10:28:17.324Z,95251.03
2022-08-03T10:30:43.698Z,95242.53
2022-08-03T10:33:12.323Z,95248.03
2022-08-03T10:35:56.396Z,95243.69
2022-08-03T10:38:22.749Z,95247.50
2022-08-03T10:40:51.126Z,95240.34
2022-08-03T10:43:19.927Z,95230.44
2022-08-03T10:45:46.284Z,95233.75
2022-08-03T10:48:12.658Z,95237.00
2022-08-03T10:50:39.078Z,95240.53
2022-08-03T10:53:05.459Z,95240.91
2022-08-03T10:55:33.031Z,95244.69
2022-08-03T10:58:00.432Z,95239.00
2022-08-03T11:00:26.856Z,95244.47
2022-08-03T11:02:53.237Z,95229.19
2022-08-03T11:05:19.612Z,95237.25
2022-08-03T11:07:47.398Z,95229.69
2022-08-03T11:10:21.080Z,95223.88
2022-08-03T11:12:47.467Z,95223.84
2022-08-03T11:15:13.822Z,95225.72
2022-08-03T11:17:46.238Z,95226.06
2022-08-03T11:20:22.097Z,95224.59
2022-08-03T11:22:48.462Z,95226.06
2022-08-03T11:25:53.154Z,95226.50
2022-08-03T11:28:01.155Z,95221.66
2022-08-03T11:30:27.609Z,95216.91
2022-08-03T11:32:54.233Z,95213.03
2022-08-03T11:35:20.597Z,95210.13
2022-08-03T11:38:04.368Z,95210.66
2022-08-03T11:40:31.758Z,95215.38
2022-08-03T11:42:58.119Z,95208.84
2022-08-03T11:45:24.465Z,95201.72
2022-08-03T11:47:51.597Z,95200.19
2022-08-03T11:50:18.047Z,95198.66
2022-08-03T11:52:44.408Z,95199.06
2022-08-03T11:55:10.757Z,95203.13
2022-08-03T11:58:58.314Z,95196.94
2022-08-03T12:00:23.432Z,95197.94
2022-08-03T12:02:52.365Z,95190.38
2022-08-03T12:05:18.739Z,95185.91
2022-08-03T12:08:05.009Z,95185.56
2022-08-03T12:10:31.438Z,95180.81
2022-08-03T12:12:57.793Z,95178.97
2022-08-03T12:15:24.148Z,95178.47
2022-08-03T12:17:52.771Z,95177.91
2022-08-03T12:20:35.257Z,95167.34
2022-08-03T12:23:01.806Z,95178.84
2022-08-03T12:25:38.768Z,95173.34
2022-08-03T12:28:06.328Z,95178.25
2022-08-03T12:30:52.657Z,95168.44
2022-08-03T12:33:19.009Z,95175.66
2022-08-03T12:35:52.161Z,95166.84
2022-08-03T12:38:19.744Z,95164.84
2022-08-03T12:40:46.117Z,95158.66
2022-08-03T12:43:12.466Z,95163.56
2022-08-03T12:45:38.825Z,95158.81
2022-08-03T12:48:05.175Z,95164.69
2022-08-03T12:50:31.955Z,95161.06
2022-08-03T12:52:58.429Z,95154.16
2022-08-03T12:55:24.785Z,95160.91
2022-08-03T12:57:51.170Z,95156.25
2022-08-03T13:00:29.225Z,95151.28
2022-08-03T13:03:17.342Z,95149.97
2022-08-03T13:05:42.402Z,95153.84
2022-08-03T13:08:08.904Z,95149.09
2022-08-03T13:10:37.922Z,95143.81
2022-08-03T13:13:04.314Z,95149.03
2022-08-03T13:15:38.723Z,95143.81
2022-08-03T13:18:14.250Z,95149.03
2022-08-03T13:20:43.757Z,95151.34
2022-08-03T13:23:15.480Z,95148.94
2022-08-03T13:25:55.377Z,95144.69
2022-08-03T13:28:22.524Z,95146.00
2022-08-03T13:30:48.882Z,95144.13
2022-08-03T13:33:15.232Z,95138.56
2022-08-03T13:35:41.598Z,95135.22
2022-08-03T13:38:08.010Z,95130.66
2022-08-03T13:40:41.373Z,95133.19
2022-08-03T13:43:08.219Z,95126.72
2022-08-03T13:45:34.573Z,95125.28
2022-08-03T13:48:00.919Z,95124.94
2022-08-03T13:50:27.271Z,95122.78
2022-08-03T13:52:53.622Z,95131.69
2022-08-03T13:55:19.984Z,95131.28
2022-08-03T13:58:11.928Z,95118.69
2022-08-03T14:00:32.714Z,95116.19
2022-08-03T14:03:05.297Z,95123.34
2022-08-03T14:05:33.316Z,95111.84
2022-08-03T14:08:03.899Z,95105.78
2022-08-03T14:10:31.398Z,95109.69
2022-08-03T14:12:57.745Z,95101.34
2022-08-03T14:15:24.091Z,95100.56
2022-08-03T14:17:50.489Z,95101.34
2022-08-03T14:20:36.517Z,95098.47
2022-08-03T14:23:03.259Z,95101.34
2022-08-03T14:25:29.629Z,95098.78
2022-08-03T14:28:09.712Z,95087.16
2022-08-03T14:30:36.085Z,95089.31
2022-08-03T14:33:02.435Z,95087.06
2022-08-03T14:35:28.789Z,95082.72
2022-08-03T14:37:55.141Z,95074.69
2022-08-03T14:40:21.495Z,95076.00
2022-08-03T14:42:47.846Z,95074.88
2022-08-03T14:45:20.146Z,95066.03
2022-08-03T14:49:02.707Z,95064.66
2022-08-03T14:50:42.958Z,95066.19
2022-08-03T14:53:11.963Z,95061.28
2022-08-03T14:55:49.906Z,95057.69
2022-08-03T14:58:19.699Z,95058.56
2022-08-03T15:00:47.699Z,95059.13
2022-08-03T15:03:16.679Z,95060.09
2022-08-03T15:05:43.711Z,95058.63
2022-08-03T15:08:10.078Z,95059.34
2022-08-03T15:10:44.196Z,95058.88
2022-08-03T15:13:11.334Z,95056.47
2022-08-03T15:15:37.682Z,95050.59
2022-08-03T15:18:04.036Z,95043.06
2022-08-03T15:20:43.215Z,95044.91
2022-08-03T15:23:10.567Z,95045.38
2022-08-03T15:26:28.551Z,95042.59
2022-08-03T15:28:23.299Z,95038.81
2022-08-03T15:30:49.666Z,95041.88
2022-08-03T15:33:16.016Z,95036.47
2022-08-03T15:35:42.365Z,95034.72
2022-08-03T15:38:09.683Z,95033.59
2022-08-03T15:40:36.230Z,95031.31
2022-08-03T15:43:02.594Z,95031.19
2022-08-03T15:45:28.962Z,95027.81
2022-08-03T15:48:02.816Z,95029.31
2022-08-03T15:50:29.175Z,95028.34
2022-08-03T15:52:55.527Z,95029.31
2022-08-03T15:55:21.888Z,95029.19
2022-08-03T15:59:09.087Z,95026.44
2022-08-03T16:00:34.603Z,95024.97
2022-08-03T16:03:00.957Z,95025.31
2022-08-03T16:05:27.333Z,95030.44
2022-08-03T16:08:02.760Z,95025.41
2022-08-03T16:10:30.523Z,95010.63
2022-08-03T16:12:56.886Z,95011.91
2022-08-03T16:15:23.225Z,95013.50
2022-08-03T16:17:49.601Z,95009.97
2022-08-03T16:20:31.073Z,95012.63
2022-08-03T16:23:10.589Z,95009.03
2022-08-03T16:25:38.027Z,95006.94
2022-08-03T16:28:07.771Z,95011.09
2022-08-03T16:30:34.688Z,95010.53
2022-08-03T16:33:01.081Z,95008.47
2022-08-03T16:35:27.439Z,95012.69
2022-08-03T16:37:54.665Z,95008.09
2022-08-03T16:40:22.765Z,95005.97
2022-08-03T16:42:49.114Z,94997.59
2022-08-03T16:45:15.480Z,95003.63
2022-08-03T16:47:41.846Z,94994.47
2022-08-03T16:50:14.294Z,94995.34
2022-08-03T16:52:47.326Z,94991.00
2022-08-03T16:55:15.302Z,94990.44
2022-08-03T16:57:58.517Z,94993.91
2022-08-03T17:00:32.886Z,94995.63
2022-08-03T17:03:01.081Z,94984.84
2022-08-03T17:05:43.905Z,94993.16
2022-08-03T17:08:14.184Z,94992.50
2022-08-03T17:10:41.776Z,94988.44
2022-08-03T17:13:11.693Z,94987.78
2022-08-03T17:16:01.049Z,94993.78
2022-08-03T17:18:28.017Z,94991.78
2022-08-03T17:20:54.392Z,94989.72
2022-08-03T17:23:35.168Z,94988.75
2022-08-03T17:26:04.567Z,94992.84
2022-08-03T17:28:50.873Z,94987.56
2022-08-03T17:31:23.107Z,94986.69
2022-08-03T17:33:58.289Z,94990.19
2022-08-03T17:36:41.794Z,94989.16
2022-08-03T17:39:08.530Z,94990.84
2022-08-03T17:41:35.391Z,94987.81
2022-08-03T17:44:15.294Z,94981.19
2022-08-03T17:46:42.969Z,94994.97
2022-08-03T17:49:24.767Z,94993.13
2022-08-03T17:51:52.930Z,94989.25
2022-08-03T17:54:19.605Z,94988.72
2022-08-03T17:56:46.731Z,94991.09
2022-08-03T17:59:13.170Z,94992.91
2022-08-03T18:02:05.617Z,94992.25
2022-08-03T18:04:30.202Z,94998.53
2022-08-03T18:06:57.110Z,94999.19
2022-08-03T18:10:06.350Z,95004.25
2022-08-03T18:12:09.992Z,95001.47
2022-08-03T18:14:36.372Z,95000.44
2022-08-03T18:17:02.720Z,95001.00
2022-08-03T18:20:03.427Z,95003.22
2022-08-03T18:22:15.450Z,95007.84
2022-08-03T18:24:41.819Z,95007.03
2022-08-03T18:27:08.493Z,95008.75
2022-08-03T18:29:35.918Z,95003.28
2022-08-03T18:32:04.688Z,95005.00
2022-08-03T18:34:34.285Z,95008.16
2022-08-03T18:37:00.906Z,95004.63
2022-08-03T18:39:34.024Z,95002.41
2022-08-03T18:42:19.705Z,94999.84
2022-08-03T18:44:53.812Z,95002.59
2022-08-03T18:47:20.873Z,95009.50
2022-08-03T18:49:47.771Z,95002.56
2022-08-03T18:52:14.578Z,95013.03
2022-08-03T18:54:55.704Z,95003.53
2022-08-03T18:57:30.427Z,95006.53
2022-08-03T19:00:01.213Z,95005.47
2022-08-03T19:02:28.799Z,95004.69
2022-08-03T19:04:55.213Z,95010.22
2022-08-03T19:07:24.644Z,95007.50
2022-08-03T19:09:51.007Z,95009.34
2022-08-03T19:12:27.268Z,95009.13
2022-08-03T19:14:56.876Z,95012.16
2022-08-03T19:17:23.329Z,95008.31
2022-08-03T19:19:55.679Z,95010.00
2022-08-03T19:22:22.602Z,95013.63
2022-08-03T19:24:49.054Z,95023.47
2022-08-03T19:27:16.063Z,95011.47
2022-08-03T19:29:58.648Z,95026.84
2022-08-03T19:32:27.528Z,95023.09
2022-08-03T19:34:53.903Z,95027.75
2022-08-03T19:37:22.189Z,95026.00
2022-08-03T19:39:56.628Z,95030.41
2022-08-03T19:42:23.396Z,95029.75
2022-08-03T19:44:49.792Z,95027.59
2022-08-03T19:47:18.348Z,95028.06
2022-08-03T19:49:59.921Z,95030.00
2022-08-03T19:52:34.282Z,95035.47
2022-08-03T19:55:00.660Z,95028.72
2022-08-03T19:57:27.018Z,95033.88
2022-08-03T19:59:53.385Z,95029.13
2022-08-03T20:02:26.375Z,95040.84
2022-08-03T20:04:53.708Z,95036.75
2022-08-03T20:07:22.743Z,95042.22
2022-08-03T20:09:49.444Z,95048.81
2022-08-03T20:12:27.465Z,95048.16
2022-08-03T20:14:55.077Z,95045.88
2022-08-03T20:17:22.731Z,95052.31
2022-08-03T20:20:09.080Z,95048.44
2022-08-03T20:22:35.435Z,95048.94
2022-08-03T20:25:05.508Z,95046.56
2022-08-03T20:27:31.876Z,95048.22
2022-08-03T20:30:18.203Z,95050.41
2022-08-03T20:32:52.743Z,95046.38
2022-08-03T20:35:19.108Z,95051.53
2022-08-03T20:37:46.611Z,95046.31
2022-08-03T20:40:12.967Z,95047.09
2022-08-03T20:42:40.615Z,95043.09
2022-08-03T20:45:13.853Z,95049.28
2022-08-03T20:47:53.308Z,95045.88
2022-08-03T20:50:19.664Z,95044.06
2022-08-03T20:52:49.762Z,95037.41
2022-08-03T20:55:16.347Z,95051.34
2022-08-03T20:57:42.704Z,95045.41
2022-08-03T21:00:15.619Z,95044.53
2022-08-03T21:02:42.016Z,95047.69
2022-08-03T21:05:09.270Z,95042.22
2022-08-03T21:07:45.646Z,95049.28
2022-08-03T21:10:22.099Z,95048.50
2022-08-03T21:12:54.295Z,95054.03
2022-08-03T21:16:04.828Z,95049.84
2022-08-03T21:18:06.989Z,95049.22
2022-08-03T21:20:33.354Z,95048.22
2022-08-03T21:22:59.713Z,95044.25
2022-08-03T21:25:26.082Z,95051.72
2022-08-03T21:27:52.431Z,95053.31
2022-08-03T21:30:18.804Z,95055.56
2022-08-03T21:32:45.160Z,95050.00
2022-08-03T21:35:12.688Z,95058.66
2022-08-03T21:37:39.033Z,95055.88
2022-08-03T21:40:05.390Z,95057.88
2022-08-03T21:42:31.737Z,95056.19
2022-08-03T21:44:58.084Z,95061.34
2022-08-03T21:47:24.519Z,95069.38
2022-08-03T21:49:52.124Z,95064.38
2022-08-03T21:52:35.425Z,95067.69
2022-08-03T21:55:01.781Z,95071.75
2022-08-03T21:57:28.140Z,95067.25
2022-08-03T21:59:54.499Z,95078.34
2022-08-03T22:02:24.064Z,95071.44
2022-08-03T22:04:56.437Z,95077.13
2022-08-03T22:07:23.886Z,95087.03
2022-08-03T22:09:51.620Z,95083.22
2022-08-03T22:12:18.107Z,95077.22
2022-08-03T22:14:44.450Z,95084.69
2022-08-03T22:17:10.810Z,95082.34
2022-08-03T22:19:37.482Z,95086.84
2022-08-03T22:22:03.831Z,95091.44
2022-08-03T22:24:30.189Z,95090.41
2022-08-03T22:26:56.534Z,95095.72
2022-08-03T22:29:22.901Z,95094.34
2022-08-03T22:31:58.044Z,95100.19
2022-08-03T22:34:26.795Z,95097.63
2022-08-03T22:36:53.498Z,95096.50
2022-08-03T22:39:25.640Z,95095.25
2022-08-03T22:41:52.410Z,95110.00
2022-08-03T22:44:18.770Z,95108.69
2022-08-03T22:46:45.123Z,95101.22
2022-08-03T22:49:11.484Z,95110.06
2022-08-03T22:51:37.865Z,95104.19
2022-08-03T22:54:06.950Z,95106.38
2022-08-03T22:56:33.382Z,95107.44
2022-08-03T22:59:01.272Z,95102.19
2022-08-03T23:01:47.603Z,95107.81
2022-08-03T23:04:14.016Z,95106.69
2022-08-03T23:06:40.386Z,95112.25
2022-08-03T23:09:06.746Z,95117.22
2022-08-03T23:11:33.107Z,95112.41
2022-08-03T23:13:59.475Z,95106.38
2022-08-03T23:16:28.817Z,95106.78
2022-08-03T23:18:55.791Z,95105.41
2022-08-03T23:21:53.705Z,95111.13
2022-08-03T23:24:10.683Z,95110.88
2022-08-03T23:26:52.401Z,95103.06
2022-08-03T23:29:18.761Z,95104.53
2022-08-03T23:31:45.115Z,95108.16
2022-08-03T23:34:16.617Z,95109.03
2022-08-03T23:36:43.239Z,95112.91
2022-08-03T23:39:09.704Z,95111.44
2022-08-03T23:41:36.173Z,95118.84
2022-08-03T23:44:02.526Z,95106.78
2022-08-03T23:46:30.120Z,95113.53
2022-08-03T23:48:56.783Z,95115.28
2022-08-03T23:51:23.237Z,95114.09
2022-08-03T23:53:49.587Z,95112.25
2022-08-03T23:56:15.941Z,95109.25
2022-08-03T23:58:42.286Z,95112.81
